sensor_id;sensor_type;location;lat;lon;timestamp;temperature;humidity
80676;SHT30;70041;46.088;18.268;2023-07-31T00:01:53;19.23;87.11
80676;SHT30;70041;46.088;18.268;2023-07-31T00:04:18;19.20;86.94
80676;SHT30;70041;46.088;18.268;2023-07-31T00:06:43;19.19;87.01
80676;SHT30;70041;46.088;18.268;2023-07-31T00:09:09;19.09;87.44
80676;SHT30;70041;46.088;18.268;2023-07-31T00:11:34;19.09;87.45
80676;SHT30;70041;46.088;18.268;2023-07-31T00:14:01;19.09;88.04
80676;SHT30;70041;46.088;18.268;2023-07-31T00:16:26;19.09;87.30
80676;SHT30;70041;46.088;18.268;2023-07-31T00:18:52;19.08;88.03
80676;SHT30;70041;46.088;18.268;2023-07-31T00:21:17;19.01;88.09
80676;SHT30;70041;46.088;18.268;2023-07-31T00:23:43;18.95;88.41
80676;SHT30;70041;46.088;18.268;2023-07-31T00:26:08;18.94;88.47
80676;SHT30;70041;46.088;18.268;2023-07-31T00:28:34;18.94;88.41
80676;SHT30;70041;46.088;18.268;2023-07-31T00:30:59;18.87;86.51
80676;SHT30;70041;46.088;18.268;2023-07-31T00:33:25;18.85;86.67
80676;SHT30;70041;46.088;18.268;2023-07-31T00:35:50;18.84;86.92
80676;SHT30;70041;46.088;18.268;2023-07-31T00:38:15;18.82;87.21
80676;SHT30;70041;46.088;18.268;2023-07-31T00:40:41;18.87;86.79
80676;SHT30;70041;46.088;18.268;2023-07-31T00:43:06;18.82;87.22
80676;SHT30;70041;46.088;18.268;2023-07-31T00:45:32;18.75;87.21
80676;SHT30;70041;46.088;18.268;2023-07-31T00:47:58;18.79;86.94
80676;SHT30;70041;46.088;18.268;2023-07-31T00:50:26;18.82;87.27
80676;SHT30;70041;46.088;18.268;2023-07-31T00:52:53;18.79;87.74
80676;SHT30;70041;46.088;18.268;2023-07-31T00:55:18;18.71;87.98
80676;SHT30;70041;46.088;18.268;2023-07-31T00:57:45;18.62;88.33
80676;SHT30;70041;46.088;18.268;2023-07-31T01:00:11;18.58;88.17
80676;SHT30;70041;46.088;18.268;2023-07-31T01:02:57;18.58;88.80
80676;SHT30;70041;46.088;18.268;2023-07-31T01:05:49;18.60;86.25
80676;SHT30;70041;46.088;18.268;2023-07-31T01:08:43;18.75;85.83
80676;SHT30;70041;46.088;18.268;2023-07-31T01:11:17;18.76;86.68
80676;SHT30;70041;46.088;18.268;2023-07-31T01:13:44;18.79;86.95
80676;SHT30;70041;46.088;18.268;2023-07-31T01:16:10;18.76;85.70
80676;SHT30;70041;46.088;18.268;2023-07-31T01:18:35;18.76;85.61
80676;SHT30;70041;46.088;18.268;2023-07-31T01:24:19;18.81;85.23
80676;SHT30;70041;46.088;18.268;2023-07-31T01:26:49;18.79;85.24
80676;SHT30;70041;46.088;18.268;2023-07-31T01:29:43;18.91;84.64
80676;SHT30;70041;46.088;18.268;2023-07-31T01:32:11;19.04;83.41
80676;SHT30;70041;46.088;18.268;2023-07-31T01:34:37;19.02;83.56
80676;SHT30;70041;46.088;18.268;2023-07-31T01:37:03;19.04;83.42
80676;SHT30;70041;46.088;18.268;2023-07-31T01:39:28;18.99;82.78
80676;SHT30;70041;46.088;18.268;2023-07-31T01:41:54;18.98;83.46
80676;SHT30;70041;46.088;18.268;2023-07-31T01:44:19;18.96;84.03
80676;SHT30;70041;46.088;18.268;2023-07-31T01:46:44;18.89;85.07
80676;SHT30;70041;46.088;18.268;2023-07-31T01:49:10;18.88;83.88
80676;SHT30;70041;46.088;18.268;2023-07-31T01:51:35;18.81;83.99
80676;SHT30;70041;46.088;18.268;2023-07-31T01:54:01;18.78;84.38
80676;SHT30;70041;46.088;18.268;2023-07-31T01:56:27;18.76;83.13
80676;SHT30;70041;46.088;18.268;2023-07-31T01:58:52;18.74;83.99
80676;SHT30;70041;46.088;18.268;2023-07-31T02:01:18;18.71;84.46
80676;SHT30;70041;46.088;18.268;2023-07-31T02:03:43;18.71;85.21
80676;SHT30;70041;46.088;18.268;2023-07-31T02:06:09;18.68;84.06
80676;SHT30;70041;46.088;18.268;2023-07-31T02:08:34;18.74;81.86
80676;SHT30;70041;46.088;18.268;2023-07-31T02:10:59;18.88;82.25
80676;SHT30;70041;46.088;18.268;2023-07-31T02:13:25;18.87;82.86
80676;SHT30;70041;46.088;18.268;2023-07-31T02:15:50;18.96;81.41
80676;SHT30;70041;46.088;18.268;2023-07-31T02:18:16;19.06;80.82
80676;SHT30;70041;46.088;18.268;2023-07-31T02:20:41;19.05;81.83
80676;SHT30;70041;46.088;18.268;2023-07-31T02:23:07;19.09;80.40
80676;SHT30;70041;46.088;18.268;2023-07-31T02:25:32;19.19;79.51
80676;SHT30;70041;46.088;18.268;2023-07-31T02:27:58;19.30;78.06
80676;SHT30;70041;46.088;18.268;2023-07-31T02:30:23;19.35;78.05
80676;SHT30;70041;46.088;18.268;2023-07-31T02:32:49;19.50;77.03
80676;SHT30;70041;46.088;18.268;2023-07-31T02:35:14;19.59;76.68
80676;SHT30;70041;46.088;18.268;2023-07-31T02:37:44;19.60;76.85
80676;SHT30;70041;46.088;18.268;2023-07-31T02:40:09;19.59;76.77
80676;SHT30;70041;46.088;18.268;2023-07-31T02:42:35;19.60;76.69
80676;SHT30;70041;46.088;18.268;2023-07-31T02:45:00;19.64;76.46
80676;SHT30;70041;46.088;18.268;2023-07-31T02:47:26;19.66;76.46
80676;SHT30;70041;46.088;18.268;2023-07-31T02:49:51;19.59;76.91
80676;SHT30;70041;46.088;18.268;2023-07-31T02:52:16;19.59;76.86
80676;SHT30;70041;46.088;18.268;2023-07-31T02:54:42;19.56;76.89
80676;SHT30;70041;46.088;18.268;2023-07-31T02:57:07;19.52;77.16
80676;SHT30;70041;46.088;18.268;2023-07-31T02:59:33;19.52;77.27
80676;SHT30;70041;46.088;18.268;2023-07-31T03:01:58;19.47;77.54
80676;SHT30;70041;46.088;18.268;2023-07-31T03:04:23;19.39;77.69
80676;SHT30;70041;46.088;18.268;2023-07-31T03:06:49;19.39;77.65
80676;SHT30;70041;46.088;18.268;2023-07-31T03:09:14;19.36;77.80
80676;SHT30;70041;46.088;18.268;2023-07-31T03:11:40;19.36;78.13
80676;SHT30;70041;46.088;18.268;2023-07-31T03:14:05;19.22;78.64
80676;SHT30;70041;46.088;18.268;2023-07-31T03:16:30;19.25;78.38
80676;SHT30;70041;46.088;18.268;2023-07-31T03:18:56;19.22;78.59
80676;SHT30;70041;46.088;18.268;2023-07-31T03:21:21;19.19;78.62
80676;SHT30;70041;46.088;18.268;2023-07-31T03:23:47;19.16;78.51
80676;SHT30;70041;46.088;18.268;2023-07-31T03:26:12;19.26;78.20
80676;SHT30;70041;46.088;18.268;2023-07-31T03:28:37;19.26;78.07
80676;SHT30;70041;46.088;18.268;2023-07-31T03:31:03;19.18;78.53
80676;SHT30;70041;46.088;18.268;2023-07-31T03:33:29;19.15;78.55
80676;SHT30;70041;46.088;18.268;2023-07-31T03:35:54;19.15;78.70
80676;SHT30;70041;46.088;18.268;2023-07-31T03:38:19;19.18;78.50
80676;SHT30;70041;46.088;18.268;2023-07-31T03:40:45;19.13;78.72
80676;SHT30;70041;46.088;18.268;2023-07-31T03:43:11;19.11;78.65
80676;SHT30;70041;46.088;18.268;2023-07-31T03:45:36;19.12;78.68
80676;SHT30;70041;46.088;18.268;2023-07-31T03:48:03;19.06;78.94
80676;SHT30;70041;46.088;18.268;2023-07-31T03:50:28;19.08;78.95
80676;SHT30;70041;46.088;18.268;2023-07-31T03:52:53;19.08;78.94
80676;SHT30;70041;46.088;18.268;2023-07-31T03:55:19;19.06;79.08
80676;SHT30;70041;46.088;18.268;2023-07-31T03:57:44;18.98;79.54
80676;SHT30;70041;46.088;18.268;2023-07-31T04:00:10;18.96;79.66
80676;SHT30;70041;46.088;18.268;2023-07-31T04:02:36;18.96;79.54
80676;SHT30;70041;46.088;18.268;2023-07-31T04:05:01;18.96;79.48
80676;SHT30;70041;46.088;18.268;2023-07-31T04:07:26;18.95;79.75
80676;SHT30;70041;46.088;18.268;2023-07-31T04:09:52;18.95;79.59
80676;SHT30;70041;46.088;18.268;2023-07-31T04:12:17;18.96;79.57
80676;SHT30;70041;46.088;18.268;2023-07-31T04:14:42;18.95;79.69
80676;SHT30;70041;46.088;18.268;2023-07-31T04:17:08;18.99;79.58
80676;SHT30;70041;46.088;18.268;2023-07-31T04:19:33;18.99;79.43
80676;SHT30;70041;46.088;18.268;2023-07-31T04:21:58;19.02;79.44
80676;SHT30;70041;46.088;18.268;2023-07-31T04:24:24;19.05;79.19
80676;SHT30;70041;46.088;18.268;2023-07-31T04:26:50;18.99;79.16
80676;SHT30;70041;46.088;18.268;2023-07-31T04:29:16;19.06;79.08
80676;SHT30;70041;46.088;18.268;2023-07-31T04:31:41;19.11;78.91
80676;SHT30;70041;46.088;18.268;2023-07-31T04:34:07;19.12;78.79
80676;SHT30;70041;46.088;18.268;2023-07-31T04:36:33;19.16;78.66
80676;SHT30;70041;46.088;18.268;2023-07-31T04:38:59;19.22;78.04
80676;SHT30;70041;46.088;18.268;2023-07-31T04:41:24;19.29;77.76
80676;SHT30;70041;46.088;18.268;2023-07-31T04:43:50;19.29;77.83
80676;SHT30;70041;46.088;18.268;2023-07-31T04:46:15;19.39;77.24
80676;SHT30;70041;46.088;18.268;2023-07-31T04:48:40;19.49;76.81
80676;SHT30;70041;46.088;18.268;2023-07-31T04:51:06;19.55;76.24
80676;SHT30;70041;46.088;18.268;2023-07-31T04:53:31;19.64;75.93
80676;SHT30;70041;46.088;18.268;2023-07-31T04:55:57;19.67;75.62
80676;SHT30;70041;46.088;18.268;2023-07-31T04:58:22;19.67;75.63
80676;SHT30;70041;46.088;18.268;2023-07-31T05:00:47;19.69;75.52
80676;SHT30;70041;46.088;18.268;2023-07-31T05:03:13;19.70;75.48
80676;SHT30;70041;46.088;18.268;2023-07-31T05:05:38;19.67;75.59
80676;SHT30;70041;46.088;18.268;2023-07-31T05:08:04;19.64;75.77
80676;SHT30;70041;46.088;18.268;2023-07-31T05:10:29;19.71;75.86
80676;SHT30;70041;46.088;18.268;2023-07-31T05:12:55;19.74;75.87
80676;SHT30;70041;46.088;18.268;2023-07-31T05:15:20;19.77;75.74
80676;SHT30;70041;46.088;18.268;2023-07-31T05:17:46;19.81;75.72
80676;SHT30;70041;46.088;18.268;2023-07-31T05:20:11;19.84;75.33
80676;SHT30;70041;46.088;18.268;2023-07-31T05:22:37;19.83;75.08
80676;SHT30;70041;46.088;18.268;2023-07-31T05:25:02;19.88;74.53
80676;SHT30;70041;46.088;18.268;2023-07-31T05:27:27;19.91;75.00
80676;SHT30;70041;46.088;18.268;2023-07-31T05:29:53;19.93;74.48
80676;SHT30;70041;46.088;18.268;2023-07-31T05:32:18;19.97;74.23
80676;SHT30;70041;46.088;18.268;2023-07-31T05:34:44;19.98;74.39
80676;SHT30;70041;46.088;18.268;2023-07-31T05:37:10;20.06;72.98
80676;SHT30;70041;46.088;18.268;2023-07-31T05:39:36;20.11;72.97
80676;SHT30;70041;46.088;18.268;2023-07-31T05:42:01;20.24;71.77
80676;SHT30;70041;46.088;18.268;2023-07-31T05:44:27;20.32;70.73
80676;SHT30;70041;46.088;18.268;2023-07-31T05:46:52;20.38;70.38
80676;SHT30;70041;46.088;18.268;2023-07-31T05:49:17;20.37;69.83
80676;SHT30;70041;46.088;18.268;2023-07-31T05:51:43;20.47;69.11
80676;SHT30;70041;46.088;18.268;2023-07-31T05:54:08;20.42;67.56
80676;SHT30;70041;46.088;18.268;2023-07-31T05:56:33;20.42;68.54
80676;SHT30;70041;46.088;18.268;2023-07-31T05:58:59;20.41;68.87
80676;SHT30;70041;46.088;18.268;2023-07-31T06:01:24;20.48;68.10
80676;SHT30;70041;46.088;18.268;2023-07-31T06:03:50;20.58;67.27
80676;SHT30;70041;46.088;18.268;2023-07-31T06:06:15;20.64;67.66
80676;SHT30;70041;46.088;18.268;2023-07-31T06:08:40;20.66;68.29
80676;SHT30;70041;46.088;18.268;2023-07-31T06:11:06;20.72;66.98
80676;SHT30;70041;46.088;18.268;2023-07-31T06:13:34;20.80;66.59
80676;SHT30;70041;46.088;18.268;2023-07-31T06:15:59;20.88;66.07
80676;SHT30;70041;46.088;18.268;2023-07-31T06:18:25;20.95;64.09
80676;SHT30;70041;46.088;18.268;2023-07-31T06:20:50;21.02;65.05
80676;SHT30;70041;46.088;18.268;2023-07-31T06:23:19;21.06;63.48
80676;SHT30;70041;46.088;18.268;2023-07-31T06:25:45;21.10;63.87
80676;SHT30;70041;46.088;18.268;2023-07-31T06:28:11;21.06;64.46
80676;SHT30;70041;46.088;18.268;2023-07-31T06:30:36;21.06;63.49
80676;SHT30;70041;46.088;18.268;2023-07-31T06:33:01;21.13;64.59
80676;SHT30;70041;46.088;18.268;2023-07-31T06:35:27;21.14;64.50
80676;SHT30;70041;46.088;18.268;2023-07-31T06:37:52;21.20;63.92
80676;SHT30;70041;46.088;18.268;2023-07-31T06:40:18;21.20;65.32
80676;SHT30;70041;46.088;18.268;2023-07-31T06:42:44;21.26;65.44
80676;SHT30;70041;46.088;18.268;2023-07-31T06:45:10;21.33;65.38
80676;SHT30;70041;46.088;18.268;2023-07-31T06:47:35;21.40;64.85
80676;SHT30;70041;46.088;18.268;2023-07-31T06:50:01;21.47;64.50
80676;SHT30;70041;46.088;18.268;2023-07-31T06:52:26;21.51;63.20
80676;SHT30;70041;46.088;18.268;2023-07-31T06:55:17;21.55;63.85
80676;SHT30;70041;46.088;18.268;2023-07-31T06:57:44;21.58;64.59
80676;SHT30;70041;46.088;18.268;2023-07-31T07:00:09;21.62;63.74
80676;SHT30;70041;46.088;18.268;2023-07-31T07:02:35;21.73;62.84
80676;SHT30;70041;46.088;18.268;2023-07-31T07:05:00;21.80;63.23
80676;SHT30;70041;46.088;18.268;2023-07-31T07:07:26;21.75;63.49
80676;SHT30;70041;46.088;18.268;2023-07-31T07:09:51;21.80;63.78
80676;SHT30;70041;46.088;18.268;2023-07-31T07:12:17;21.95;62.83
80676;SHT30;70041;46.088;18.268;2023-07-31T07:14:42;22.01;61.96
80676;SHT30;70041;46.088;18.268;2023-07-31T07:17:08;22.01;61.02
80676;SHT30;70041;46.088;18.268;2023-07-31T07:19:33;22.08;65.48
80676;SHT30;70041;46.088;18.268;2023-07-31T07:21:58;22.11;63.26
80676;SHT30;70041;46.088;18.268;2023-07-31T07:24:27;22.15;62.84
80676;SHT30;70041;46.088;18.268;2023-07-31T07:26:52;22.26;62.14
80676;SHT30;70041;46.088;18.268;2023-07-31T07:29:17;22.32;62.66
80676;SHT30;70041;46.088;18.268;2023-07-31T07:31:43;22.39;58.89
80676;SHT30;70041;46.088;18.268;2023-07-31T07:34:08;22.49;57.31
80676;SHT30;70041;46.088;18.268;2023-07-31T07:36:33;22.52;56.71
80676;SHT30;70041;46.088;18.268;2023-07-31T07:38:59;22.55;56.45
80676;SHT30;70041;46.088;18.268;2023-07-31T07:41:24;22.51;57.64
80676;SHT30;70041;46.088;18.268;2023-07-31T07:43:50;22.60;56.03
80676;SHT30;70041;46.088;18.268;2023-07-31T07:46:16;22.67;56.10
80676;SHT30;70041;46.088;18.268;2023-07-31T07:48:41;22.72;53.80
80676;SHT30;70041;46.088;18.268;2023-07-31T07:51:07;22.66;53.51
80676;SHT30;70041;46.088;18.268;2023-07-31T07:53:32;22.66;53.71
80676;SHT30;70041;46.088;18.268;2023-07-31T07:55:58;22.64;53.95
80676;SHT30;70041;46.088;18.268;2023-07-31T07:58:23;22.66;53.80
80676;SHT30;70041;46.088;18.268;2023-07-31T08:00:50;22.79;52.90
80676;SHT30;70041;46.088;18.268;2023-07-31T08:03:16;22.79;52.60
80676;SHT30;70041;46.088;18.268;2023-07-31T08:05:42;22.77;52.09
80676;SHT30;70041;46.088;18.268;2023-07-31T08:08:07;22.77;51.89
80676;SHT30;70041;46.088;18.268;2023-07-31T08:10:33;22.83;53.18
80676;SHT30;70041;46.088;18.268;2023-07-31T08:12:58;22.93;54.24
80676;SHT30;70041;46.088;18.268;2023-07-31T08:15:24;23.07;55.47
80676;SHT30;70041;46.088;18.268;2023-07-31T08:17:49;23.08;54.17
80676;SHT30;70041;46.088;18.268;2023-07-31T08:20:15;23.03;54.38
80676;SHT30;70041;46.088;18.268;2023-07-31T08:22:40;23.08;54.97
80676;SHT30;70041;46.088;18.268;2023-07-31T08:25:06;23.21;54.43
80676;SHT30;70041;46.088;18.268;2023-07-31T08:27:32;23.25;53.39
80676;SHT30;70041;46.088;18.268;2023-07-31T08:29:57;23.25;53.63
80676;SHT30;70041;46.088;18.268;2023-07-31T08:32:23;23.30;53.37
80676;SHT30;70041;46.088;18.268;2023-07-31T08:34:48;23.18;52.51
80676;SHT30;70041;46.088;18.268;2023-07-31T08:37:14;23.15;52.88
80676;SHT30;70041;46.088;18.268;2023-07-31T08:39:39;23.13;53.83
80676;SHT30;70041;46.088;18.268;2023-07-31T08:42:08;23.18;53.47
80676;SHT30;70041;46.088;18.268;2023-07-31T08:44:34;23.30;53.32
80676;SHT30;70041;46.088;18.268;2023-07-31T08:47:00;23.43;52.74
80676;SHT30;70041;46.088;18.268;2023-07-31T08:49:27;23.48;52.30
80676;SHT30;70041;46.088;18.268;2023-07-31T08:51:52;23.45;53.12
80676;SHT30;70041;46.088;18.268;2023-07-31T08:54:19;23.48;52.99
80676;SHT30;70041;46.088;18.268;2023-07-31T08:56:45;23.50;52.75
80676;SHT30;70041;46.088;18.268;2023-07-31T08:59:13;23.48;53.99
80676;SHT30;70041;46.088;18.268;2023-07-31T09:01:43;23.69;52.69
80676;SHT30;70041;46.088;18.268;2023-07-31T09:04:12;23.66;52.54
80676;SHT30;70041;46.088;18.268;2023-07-31T09:06:38;23.75;50.91
80676;SHT30;70041;46.088;18.268;2023-07-31T09:09:04;23.76;50.84
80676;SHT30;70041;46.088;18.268;2023-07-31T09:11:29;23.82;51.58
80676;SHT30;70041;46.088;18.268;2023-07-31T09:13:57;23.90;50.19
80676;SHT30;70041;46.088;18.268;2023-07-31T09:16:28;23.86;48.78
80676;SHT30;70041;46.088;18.268;2023-07-31T09:18:57;23.85;49.76
80676;SHT30;70041;46.088;18.268;2023-07-31T09:21:24;23.98;49.39
80676;SHT30;70041;46.088;18.268;2023-07-31T09:23:50;23.96;49.22
80676;SHT30;70041;46.088;18.268;2023-07-31T09:28:57;24.08;49.47
80676;SHT30;70041;46.088;18.268;2023-07-31T09:34:03;24.25;46.96
80676;SHT30;70041;46.088;18.268;2023-07-31T09:36:30;24.27;47.38
80676;SHT30;70041;46.088;18.268;2023-07-31T09:39:02;24.35;47.63
80676;SHT30;70041;46.088;18.268;2023-07-31T09:41:28;24.33;45.61
80676;SHT30;70041;46.088;18.268;2023-07-31T09:43:54;24.43;46.52
80676;SHT30;70041;46.088;18.268;2023-07-31T09:46:20;24.47;46.76
80676;SHT30;70041;46.088;18.268;2023-07-31T09:48:47;24.47;47.49
80676;SHT30;70041;46.088;18.268;2023-07-31T09:51:12;24.46;46.80
80676;SHT30;70041;46.088;18.268;2023-07-31T09:53:37;24.57;48.37
80676;SHT30;70041;46.088;18.268;2023-07-31T09:56:03;24.66;48.84
80676;SHT30;70041;46.088;18.268;2023-07-31T09:58:34;24.87;48.23
80676;SHT30;70041;46.088;18.268;2023-07-31T10:01:01;24.99;48.96
80676;SHT30;70041;46.088;18.268;2023-07-31T10:03:29;25.07;47.54
80676;SHT30;70041;46.088;18.268;2023-07-31T10:05:55;25.08;46.98
80676;SHT30;70041;46.088;18.268;2023-07-31T10:08:29;25.08;44.68
80676;SHT30;70041;46.088;18.268;2023-07-31T10:10:58;25.04;45.93
80676;SHT30;70041;46.088;18.268;2023-07-31T10:13:24;25.21;45.12
80676;SHT30;70041;46.088;18.268;2023-07-31T10:15:50;25.21;44.88
80676;SHT30;70041;46.088;18.268;2023-07-31T10:18:18;25.22;44.94
80676;SHT30;70041;46.088;18.268;2023-07-31T10:20:44;25.22;45.59
80676;SHT30;70041;46.088;18.268;2023-07-31T10:23:10;25.29;43.98
80676;SHT30;70041;46.088;18.268;2023-07-31T10:25:37;25.38;43.06
80676;SHT30;70041;46.088;18.268;2023-07-31T10:28:02;25.80;44.11
80676;SHT30;70041;46.088;18.268;2023-07-31T10:30:30;26.16;41.72
80676;SHT30;70041;46.088;18.268;2023-07-31T10:32:58;26.24;43.00
80676;SHT30;70041;46.088;18.268;2023-07-31T10:35:23;26.27;43.73
80676;SHT30;70041;46.088;18.268;2023-07-31T10:37:49;26.27;42.17
80676;SHT30;70041;46.088;18.268;2023-07-31T10:40:19;26.17;42.23
80676;SHT30;70041;46.088;18.268;2023-07-31T10:45:35;27.29;39.89
80676;SHT30;70041;46.088;18.268;2023-07-31T10:48:14;28.35;37.75
80676;SHT30;70041;46.088;18.268;2023-07-31T10:50:50;28.86;37.28
80676;SHT30;70041;46.088;18.268;2023-07-31T10:53:32;29.31;35.99
80676;SHT30;70041;46.088;18.268;2023-07-31T10:56:02;29.34;36.57
80676;SHT30;70041;46.088;18.268;2023-07-31T10:58:28;29.54;36.44
80676;SHT30;70041;46.088;18.268;2023-07-31T11:01:00;29.06;37.80
80676;SHT30;70041;46.088;18.268;2023-07-31T11:03:40;28.92;36.96
80676;SHT30;70041;46.088;18.268;2023-07-31T11:06:06;29.25;36.75
80676;SHT30;70041;46.088;18.268;2023-07-31T11:08:33;29.47;36.24
80676;SHT30;70041;46.088;18.268;2023-07-31T11:13:47;30.07;35.65
80676;SHT30;70041;46.088;18.268;2023-07-31T11:16:19;30.09;36.18
80676;SHT30;70041;46.088;18.268;2023-07-31T11:18:45;28.92;39.36
80676;SHT30;70041;46.088;18.268;2023-07-31T11:21:16;29.03;38.53
80676;SHT30;70041;46.088;18.268;2023-07-31T11:23:46;28.34;40.18
80676;SHT30;70041;46.088;18.268;2023-07-31T11:26:12;27.93;40.44
80676;SHT30;70041;46.088;18.268;2023-07-31T11:28:37;27.60;40.19
80676;SHT30;70041;46.088;18.268;2023-07-31T11:31:04;27.23;42.39
80676;SHT30;70041;46.088;18.268;2023-07-31T11:33:29;26.91;41.08
80676;SHT30;70041;46.088;18.268;2023-07-31T11:35:55;26.95;41.23
80676;SHT30;70041;46.088;18.268;2023-07-31T11:38:25;26.96;40.05
80676;SHT30;70041;46.088;18.268;2023-07-31T11:40:52;26.88;41.27
80676;SHT30;70041;46.088;18.268;2023-07-31T11:43:18;26.75;41.81
80676;SHT30;70041;46.088;18.268;2023-07-31T11:45:48;26.80;43.06
80676;SHT30;70041;46.088;18.268;2023-07-31T11:48:31;26.77;44.20
80676;SHT30;70041;46.088;18.268;2023-07-31T11:51:03;26.85;42.55
80676;SHT30;70041;46.088;18.268;2023-07-31T11:53:58;27.01;41.77
80676;SHT30;70041;46.088;18.268;2023-07-31T11:56:26;27.76;41.15
80676;SHT30;70041;46.088;18.268;2023-07-31T11:58:54;27.87;40.33
80676;SHT30;70041;46.088;18.268;2023-07-31T12:01:22;28.24;42.06
80676;SHT30;70041;46.088;18.268;2023-07-31T12:03:49;27.69;42.06
80676;SHT30;70041;46.088;18.268;2023-07-31T12:06:15;27.77;40.78
80676;SHT30;70041;46.088;18.268;2023-07-31T12:08:40;27.71;41.29
80676;SHT30;70041;46.088;18.268;2023-07-31T12:11:08;27.02;42.81
80676;SHT30;70041;46.088;18.268;2023-07-31T12:13:35;26.92;42.33
80676;SHT30;70041;46.088;18.268;2023-07-31T12:16:02;26.98;42.12
80676;SHT30;70041;46.088;18.268;2023-07-31T12:18:31;27.12;42.09
80676;SHT30;70041;46.088;18.268;2023-07-31T12:21:00;27.15;41.28
80676;SHT30;70041;46.088;18.268;2023-07-31T12:23:28;27.09;43.66
80676;SHT30;70041;46.088;18.268;2023-07-31T12:31:09;27.97;40.75
80676;SHT30;70041;46.088;18.268;2023-07-31T12:33:37;28.20;40.33
80676;SHT30;70041;46.088;18.268;2023-07-31T12:36:07;28.25;40.52
80676;SHT30;70041;46.088;18.268;2023-07-31T12:38:33;28.07;42.95
80676;SHT30;70041;46.088;18.268;2023-07-31T12:40:59;28.33;40.35
80676;SHT30;70041;46.088;18.268;2023-07-31T12:43:24;28.96;38.66
80676;SHT30;70041;46.088;18.268;2023-07-31T12:45:50;30.14;36.65
80676;SHT30;70041;46.088;18.268;2023-07-31T12:48:15;30.86;34.93
80676;SHT30;70041;46.088;18.268;2023-07-31T12:50:41;31.62;34.33
80676;SHT30;70041;46.088;18.268;2023-07-31T12:53:06;32.40;33.13
80676;SHT30;70041;46.088;18.268;2023-07-31T12:55:32;31.86;33.91
80676;SHT30;70041;46.088;18.268;2023-07-31T12:58:02;30.48;36.28
80676;SHT30;70041;46.088;18.268;2023-07-31T13:00:27;30.11;36.03
80676;SHT30;70041;46.088;18.268;2023-07-31T13:02:53;29.23;37.91
80676;SHT30;70041;46.088;18.268;2023-07-31T13:05:18;29.45;37.85
80676;SHT30;70041;46.088;18.268;2023-07-31T13:07:47;30.59;34.82
80676;SHT30;70041;46.088;18.268;2023-07-31T13:10:13;32.23;33.57
80676;SHT30;70041;46.088;18.268;2023-07-31T13:12:38;33.30;30.82
80676;SHT30;70041;46.088;18.268;2023-07-31T13:15:05;33.95;29.80
80676;SHT30;70041;46.088;18.268;2023-07-31T13:17:30;33.81;30.22
80676;SHT30;70041;46.088;18.268;2023-07-31T13:19:56;34.42;31.92
80676;SHT30;70041;46.088;18.268;2023-07-31T13:22:21;34.63;28.86
80676;SHT30;70041;46.088;18.268;2023-07-31T13:24:47;35.13;28.05
80676;SHT30;70041;46.088;18.268;2023-07-31T13:27:13;35.07;28.43
80676;SHT30;70041;46.088;18.268;2023-07-31T13:29:39;35.01;28.71
80676;SHT30;70041;46.088;18.268;2023-07-31T13:32:04;34.36;28.93
80676;SHT30;70041;46.088;18.268;2023-07-31T13:34:30;34.29;30.20
80676;SHT30;70041;46.088;18.268;2023-07-31T13:36:55;33.53;30.37
80676;SHT30;70041;46.088;18.268;2023-07-31T13:39:21;33.92;29.70
80676;SHT30;70041;46.088;18.268;2023-07-31T13:41:46;33.47;30.17
80676;SHT30;70041;46.088;18.268;2023-07-31T13:44:12;32.39;31.52
80676;SHT30;70041;46.088;18.268;2023-07-31T13:46:37;31.48;33.82
80676;SHT30;70041;46.088;18.268;2023-07-31T13:49:02;31.51;33.85
80676;SHT30;70041;46.088;18.268;2023-07-31T13:51:28;32.93;31.93
80676;SHT30;70041;46.088;18.268;2023-07-31T13:53:54;34.10;29.71
80676;SHT30;70041;46.088;18.268;2023-07-31T13:56:19;34.64;29.62
80676;SHT30;70041;46.088;18.268;2023-07-31T13:58:44;34.10;28.91
80676;SHT30;70041;46.088;18.268;2023-07-31T14:01:10;35.11;28.56
80676;SHT30;70041;46.088;18.268;2023-07-31T14:03:35;36.08;28.16
80676;SHT30;70041;46.088;18.268;2023-07-31T14:06:01;33.78;31.05
80676;SHT30;70041;46.088;18.268;2023-07-31T14:08:26;34.22;29.19
80676;SHT30;70041;46.088;18.268;2023-07-31T14:10:52;33.48;31.96
80676;SHT30;70041;46.088;18.268;2023-07-31T14:13:17;33.40;31.12
80676;SHT30;70041;46.088;18.268;2023-07-31T14:15:43;33.59;31.41
80676;SHT30;70041;46.088;18.268;2023-07-31T14:18:09;33.43;31.80
80676;SHT30;70041;46.088;18.268;2023-07-31T14:20:34;33.59;32.49
80676;SHT30;70041;46.088;18.268;2023-07-31T14:23:00;32.74;32.88
80676;SHT30;70041;46.088;18.268;2023-07-31T14:25:26;32.90;33.40
80676;SHT30;70041;46.088;18.268;2023-07-31T14:27:51;32.80;33.59
80676;SHT30;70041;46.088;18.268;2023-07-31T14:30:17;32.87;33.48
80676;SHT30;70041;46.088;18.268;2023-07-31T14:32:43;33.25;32.94
80676;SHT30;70041;46.088;18.268;2023-07-31T14:35:09;33.74;31.20
80676;SHT30;70041;46.088;18.268;2023-07-31T14:37:39;34.05;31.20
80676;SHT30;70041;46.088;18.268;2023-07-31T14:40:05;34.59;31.09
80676;SHT30;70041;46.088;18.268;2023-07-31T14:42:30;34.73;30.90
80676;SHT30;70041;46.088;18.268;2023-07-31T14:44:56;34.17;30.48
80676;SHT30;70041;46.088;18.268;2023-07-31T14:47:21;34.33;30.14
80676;SHT30;70041;46.088;18.268;2023-07-31T14:49:46;33.88;31.93
80676;SHT30;70041;46.088;18.268;2023-07-31T14:52:12;32.26;32.73
80676;SHT30;70041;46.088;18.268;2023-07-31T14:54:37;31.85;34.62
80676;SHT30;70041;46.088;18.268;2023-07-31T14:57:03;32.49;33.12
80676;SHT30;70041;46.088;18.268;2023-07-31T14:59:28;32.11;33.63
80676;SHT30;70041;46.088;18.268;2023-07-31T15:01:54;31.95;34.74
80676;SHT30;70041;46.088;18.268;2023-07-31T15:04:19;31.57;36.33
80676;SHT30;70041;46.088;18.268;2023-07-31T15:06:45;31.10;36.19
80676;SHT30;70041;46.088;18.268;2023-07-31T15:09:10;31.01;36.58
80676;SHT30;70041;46.088;18.268;2023-07-31T15:11:35;31.52;36.35
80676;SHT30;70041;46.088;18.268;2023-07-31T15:14:01;31.29;35.79
80676;SHT30;70041;46.088;18.268;2023-07-31T15:16:26;31.45;35.95
80676;SHT30;70041;46.088;18.268;2023-07-31T15:18:54;30.65;37.24
80676;SHT30;70041;46.088;18.268;2023-07-31T15:21:19;30.25;37.72
80676;SHT30;70041;46.088;18.268;2023-07-31T15:23:44;30.63;38.08
80676;SHT30;70041;46.088;18.268;2023-07-31T15:26:10;30.14;38.25
80676;SHT30;70041;46.088;18.268;2023-07-31T15:28:35;29.30;39.44
80676;SHT30;70041;46.088;18.268;2023-07-31T15:31:02;28.75;40.75